sensor_id;sensor_type;location;lat;lon;timestamp;P1;durP1;ratioP1;P2;durP2;ratioP2
6947;SDS011;3513;47.664;9.162;2023-06-22T00:00:49;17.87;;;9.00;;
6947;SDS011;3513;47.664;9.162;2023-06-22T00:03:15;23.40;;;9.33;;
6947;SDS011;3513;47.664;9.162;2023-06-22T00:05:42;25.47;;;10.47;;
6947;SDS011;3513;47.664;9.162;2023-06-22T00:08:08;23.17;;;9.93;;
6947;SDS011;3513;47.664;9.162;2023-06-22T00:10:33;24.40;;;10.20;;
6947;SDS011;3513;47.664;9.162;2023-06-22T00:12:59;20.43;;;9.37;;
6947;SDS011;3513;47.664;9.162;2023-06-22T00:15:25;24.70;;;11.53;;
6947;SDS011;3513;47.664;9.162;2023-06-22T00:17:50;21.10;;;10.73;;
6947;SDS011;3513;47.664;9.162;2023-06-22T00:20:16;26.60;;;10.13;;
6947;SDS011;3513;47.664;9.162;2023-06-22T00:22:43;31.87;;;11.60;;
6947;SDS011;3513;47.664;9.162;2023-06-22T00:25:09;27.90;;;11.80;;
6947;SDS011;3513;47.664;9.162;2023-06-22T00:27:35;33.27;;;12.27;;
6947;SDS011;3513;47.664;9.162;2023-06-22T00:30:01;21.90;;;11.27;;
6947;SDS011;3513;47.664;9.162;2023-06-22T00:32:27;23.63;;;10.83;;
6947;SDS011;3513;47.664;9.162;2023-06-22T00:34:52;23.00;;;11.20;;
6947;SDS011;3513;47.664;9.162;2023-06-22T00:37:18;21.50;;;10.97;;
6947;SDS011;3513;47.664;9.162;2023-06-22T00:39:43;25.47;;;10.77;;
6947;SDS011;3513;47.664;9.162;2023-06-22T00:42:09;21.63;;;12.23;;
6947;SDS011;3513;47.664;9.162;2023-06-22T00:44:35;14.60;;;10.63;;
6947;SDS011;3513;47.664;9.162;2023-06-22T00:47:01;28.63;;;11.60;;
6947;SDS011;3513;47.664;9.162;2023-06-22T00:49:28;21.33;;;12.70;;
6947;SDS011;3513;47.664;9.162;2023-06-22T00:51:54;23.40;;;12.40;;
6947;SDS011;3513;47.664;9.162;2023-06-22T00:54:21;19.80;;;11.37;;
6947;SDS011;3513;47.664;9.162;2023-06-22T00:56:50;23.90;;;11.70;;
6947;SDS011;3513;47.664;9.162;2023-06-22T00:59:19;34.43;;;11.47;;
6947;SDS011;3513;47.664;9.162;2023-06-22T01:01:45;35.70;;;13.00;;
6947;SDS011;3513;47.664;9.162;2023-06-22T01:04:11;27.20;;;11.63;;
6947;SDS011;3513;47.664;9.162;2023-06-22T01:06:38;17.93;;;11.47;;
6947;SDS011;3513;47.664;9.162;2023-06-22T01:09:19;31.50;;;11.83;;
6947;SDS011;3513;47.664;9.162;2023-06-22T01:11:54;27.07;;;10.57;;
6947;SDS011;3513;47.664;9.162;2023-06-22T01:14:28;23.67;;;11.00;;
6947;SDS011;3513;47.664;9.162;2023-06-22T01:17:05;18.10;;;11.40;;
6947;SDS011;3513;47.664;9.162;2023-06-22T01:19:35;24.43;;;12.13;;
6947;SDS011;3513;47.664;9.162;2023-06-22T01:22:12;24.30;;;11.60;;
6947;SDS011;3513;47.664;9.162;2023-06-22T01:30:40;21.90;;;11.13;;
6947;SDS011;3513;47.664;9.162;2023-06-22T01:33:09;23.80;;;12.20;;
6947;SDS011;3513;47.664;9.162;2023-06-22T01:35:37;19.40;;;10.60;;
6947;SDS011;3513;47.664;9.162;2023-06-22T01:38:03;23.87;;;10.90;;
6947;SDS011;3513;47.664;9.162;2023-06-22T01:40:30;13.87;;;10.00;;
6947;SDS011;3513;47.664;9.162;2023-06-22T01:42:57;31.83;;;12.80;;
6947;SDS011;3513;47.664;9.162;2023-06-22T01:45:28;28.10;;;12.67;;
6947;SDS011;3513;47.664;9.162;2023-06-22T01:47:54;30.67;;;12.17;;
6947;SDS011;3513;47.664;9.162;2023-06-22T01:50:20;19.13;;;10.63;;
6947;SDS011;3513;47.664;9.162;2023-06-22T01:52:46;21.67;;;9.73;;
6947;SDS011;3513;47.664;9.162;2023-06-22T01:55:12;27.43;;;11.63;;
6947;SDS011;3513;47.664;9.162;2023-06-22T01:57:37;25.93;;;11.50;;
6947;SDS011;3513;47.664;9.162;2023-06-22T02:00:04;22.10;;;11.60;;
6947;SDS011;3513;47.664;9.162;2023-06-22T02:02:54;26.03;;;11.27;;
6947;SDS011;3513;47.664;9.162;2023-06-22T02:05:26;21.50;;;11.97;;
6947;SDS011;3513;47.664;9.162;2023-06-22T02:08:15;19.13;;;10.83;;
6947;SDS011;3513;47.664;9.162;2023-06-22T02:10:47;21.40;;;11.93;;
6947;SDS011;3513;47.664;9.162;2023-06-22T02:13:14;27.67;;;10.77;;
6947;SDS011;3513;47.664;9.162;2023-06-22T02:15:40;31.50;;;10.83;;
6947;SDS011;3513;47.664;9.162;2023-06-22T02:18:06;22.80;;;10.73;;
6947;SDS011;3513;47.664;9.162;2023-06-22T02:20:32;25.63;;;11.70;;
6947;SDS011;3513;47.664;9.162;2023-06-22T02:23:01;20.80;;;10.40;;
6947;SDS011;3513;47.664;9.162;2023-06-22T02:25:26;24.13;;;10.30;;
6947;SDS011;3513;47.664;9.162;2023-06-22T02:27:52;24.03;;;10.60;;
6947;SDS011;3513;47.664;9.162;2023-06-22T02:30:17;24.17;;;12.17;;
6947;SDS011;3513;47.664;9.162;2023-06-22T02:32:43;22.50;;;12.53;;
6947;SDS011;3513;47.664;9.162;2023-06-22T02:35:09;24.87;;;12.70;;
6947;SDS011;3513;47.664;9.162;2023-06-22T02:37:35;23.53;;;11.43;;
6947;SDS011;3513;47.664;9.162;2023-06-22T02:40:06;24.53;;;10.07;;
6947;SDS011;3513;47.664;9.162;2023-06-22T02:42:34;33.93;;;11.63;;
6947;SDS011;3513;47.664;9.162;2023-06-22T02:45:00;22.20;;;10.70;;
6947;SDS011;3513;47.664;9.162;2023-06-22T02:47:26;27.47;;;11.50;;
6947;SDS011;3513;47.664;9.162;2023-06-22T02:49:51;20.37;;;10.70;;
6947;SDS011;3513;47.664;9.162;2023-06-22T02:52:17;21.07;;;10.90;;
6947;SDS011;3513;47.664;9.162;2023-06-22T02:54:43;32.20;;;12.17;;
6947;SDS011;3513;47.664;9.162;2023-06-22T02:57:11;32.27;;;11.90;;
6947;SDS011;3513;47.664;9.162;2023-06-22T02:59:39;18.27;;;11.90;;
6947;SDS011;3513;47.664;9.162;2023-06-22T03:02:06;20.10;;;11.83;;
6947;SDS011;3513;47.664;9.162;2023-06-22T03:04:33;15.60;;;11.00;;
6947;SDS011;3513;47.664;9.162;2023-06-22T03:06:59;21.57;;;11.03;;
6947;SDS011;3513;47.664;9.162;2023-06-22T03:09:26;26.77;;;11.60;;
6947;SDS011;3513;47.664;9.162;2023-06-22T03:11:52;26.60;;;11.80;;
6947;SDS011;3513;47.664;9.162;2023-06-22T03:14:18;22.90;;;12.13;;
6947;SDS011;3513;47.664;9.162;2023-06-22T03:16:44;23.47;;;13.03;;
6947;SDS011;3513;47.664;9.162;2023-06-22T03:19:10;23.80;;;10.50;;
6947;SDS011;3513;47.664;9.162;2023-06-22T03:21:36;25.73;;;12.00;;
6947;SDS011;3513;47.664;9.162;2023-06-22T03:24:03;15.77;;;9.73;;
6947;SDS011;3513;47.664;9.162;2023-06-22T03:26:29;35.30;;;10.60;;
6947;SDS011;3513;47.664;9.162;2023-06-22T03:28:55;24.90;;;12.43;;
6947;SDS011;3513;47.664;9.162;2023-06-22T03:31:20;21.37;;;10.63;;
6947;SDS011;3513;47.664;9.162;2023-06-22T03:33:47;30.90;;;11.20;;
6947;SDS011;3513;47.664;9.162;2023-06-22T03:36:16;29.50;;;11.10;;
6947;SDS011;3513;47.664;9.162;2023-06-22T03:38:46;23.80;;;9.40;;
6947;SDS011;3513;47.664;9.162;2023-06-22T03:41:12;22.30;;;10.30;;
6947;SDS011;3513;47.664;9.162;2023-06-22T03:43:38;17.90;;;10.60;;
6947;SDS011;3513;47.664;9.162;2023-06-22T03:46:04;20.70;;;10.00;;
6947;SDS011;3513;47.664;9.162;2023-06-22T03:48:30;16.83;;;10.07;;
6947;SDS011;3513;47.664;9.162;2023-06-22T03:50:56;20.30;;;10.40;;
6947;SDS011;3513;47.664;9.162;2023-06-22T03:53:21;29.07;;;9.67;;
6947;SDS011;3513;47.664;9.162;2023-06-22T03:55:50;20.37;;;10.67;;
6947;SDS011;3513;47.664;9.162;2023-06-22T03:58:17;31.17;;;11.27;;
6947;SDS011;3513;47.664;9.162;2023-06-22T04:00:51;30.77;;;10.70;;
6947;SDS011;3513;47.664;9.162;2023-06-22T04:03:18;20.20;;;10.13;;
6947;SDS011;3513;47.664;9.162;2023-06-22T04:05:44;22.30;;;10.03;;
6947;SDS011;3513;47.664;9.162;2023-06-22T04:08:09;19.07;;;10.47;;
6947;SDS011;3513;47.664;9.162;2023-06-22T04:10:35;19.97;;;10.63;;
6947;SDS011;3513;47.664;9.162;2023-06-22T04:13:01;25.57;;;10.17;;
6947;SDS011;3513;47.664;9.162;2023-06-22T04:15:27;18.83;;;10.33;;
6947;SDS011;3513;47.664;9.162;2023-06-22T04:17:54;19.63;;;10.83;;
6947;SDS011;3513;47.664;9.162;2023-06-22T04:20:20;25.93;;;10.40;;
6947;SDS011;3513;47.664;9.162;2023-06-22T04:22:46;22.27;;;11.23;;
6947;SDS011;3513;47.664;9.162;2023-06-22T04:25:12;24.83;;;13.27;;
6947;SDS011;3513;47.664;9.162;2023-06-22T04:27:37;25.37;;;10.77;;
6947;SDS011;3513;47.664;9.162;2023-06-22T04:30:05;23.77;;;11.50;;
6947;SDS011;3513;47.664;9.162;2023-06-22T04:32:32;25.47;;;10.20;;
6947;SDS011;3513;47.664;9.162;2023-06-22T04:35:04;37.33;;;11.93;;
6947;SDS011;3513;47.664;9.162;2023-06-22T04:37:31;21.83;;;10.67;;
6947;SDS011;3513;47.664;9.162;2023-06-22T04:39:57;21.43;;;10.50;;
6947;SDS011;3513;47.664;9.162;2023-06-22T04:42:24;22.20;;;10.87;;
6947;SDS011;3513;47.664;9.162;2023-06-22T04:44:53;28.70;;;12.77;;
6947;SDS011;3513;47.664;9.162;2023-06-22T04:47:19;23.83;;;10.10;;
6947;SDS011;3513;47.664;9.162;2023-06-22T04:49:45;24.33;;;10.77;;
6947;SDS011;3513;47.664;9.162;2023-06-22T04:52:11;25.83;;;10.37;;
6947;SDS011;3513;47.664;9.162;2023-06-22T04:54:39;26.53;;;10.90;;
6947;SDS011;3513;47.664;9.162;2023-06-22T04:57:12;24.47;;;11.43;;
6947;SDS011;3513;47.664;9.162;2023-06-22T04:59:38;19.23;;;11.03;;
6947;SDS011;3513;47.664;9.162;2023-06-22T05:02:06;27.20;;;11.13;;
6947;SDS011;3513;47.664;9.162;2023-06-22T05:04:33;23.60;;;11.10;;
6947;SDS011;3513;47.664;9.162;2023-06-22T05:07:00;35.70;;;11.43;;
6947;SDS011;3513;47.664;9.162;2023-06-22T05:09:26;42.57;;;12.00;;
6947;SDS011;3513;47.664;9.162;2023-06-22T05:11:52;27.07;;;12.90;;
6947;SDS011;3513;47.664;9.162;2023-06-22T05:14:18;25.47;;;11.73;;
6947;SDS011;3513;47.664;9.162;2023-06-22T05:16:44;23.10;;;12.37;;
6947;SDS011;3513;47.664;9.162;2023-06-22T05:19:10;23.13;;;12.67;;
6947;SDS011;3513;47.664;9.162;2023-06-22T05:21:36;24.03;;;12.10;;
6947;SDS011;3513;47.664;9.162;2023-06-22T05:24:02;18.07;;;10.53;;
6947;SDS011;3513;47.664;9.162;2023-06-22T05:26:28;20.77;;;10.60;;
6947;SDS011;3513;47.664;9.162;2023-06-22T05:28:55;50.57;;;12.77;;
6947;SDS011;3513;47.664;9.162;2023-06-22T05:31:21;37.03;;;11.27;;
6947;SDS011;3513;47.664;9.162;2023-06-22T05:33:48;41.13;;;11.37;;
6947;SDS011;3513;47.664;9.162;2023-06-22T05:36:14;20.10;;;11.83;;
6947;SDS011;3513;47.664;9.162;2023-06-22T05:38:40;17.17;;;9.87;;
6947;SDS011;3513;47.664;9.162;2023-06-22T05:41:06;23.83;;;11.33;;
6947;SDS011;3513;47.664;9.162;2023-06-22T05:43:32;19.57;;;11.03;;
6947;SDS011;3513;47.664;9.162;2023-06-22T05:45:58;28.00;;;11.60;;
6947;SDS011;3513;47.664;9.162;2023-06-22T05:48:24;39.57;;;10.50;;
6947;SDS011;3513;47.664;9.162;2023-06-22T05:50:50;28.57;;;11.20;;
6947;SDS011;3513;47.664;9.162;2023-06-22T05:53:15;21.83;;;11.43;;
6947;SDS011;3513;47.664;9.162;2023-06-22T05:55:41;30.40;;;12.37;;
6947;SDS011;3513;47.664;9.162;2023-06-22T05:58:07;22.87;;;11.40;;
6947;SDS011;3513;47.664;9.162;2023-06-22T06:00:33;24.20;;;12.10;;
6947;SDS011;3513;47.664;9.162;2023-06-22T06:02:59;28.87;;;10.67;;
6947;SDS011;3513;47.664;9.162;2023-06-22T06:05:34;28.83;;;12.07;;
6947;SDS011;3513;47.664;9.162;2023-06-22T06:08:01;32.37;;;11.43;;
6947;SDS011;3513;47.664;9.162;2023-06-22T06:10:29;17.67;;;10.40;;
6947;SDS011;3513;47.664;9.162;2023-06-22T06:12:55;23.20;;;10.90;;
6947;SDS011;3513;47.664;9.162;2023-06-22T06:15:21;21.50;;;10.17;;
6947;SDS011;3513;47.664;9.162;2023-06-22T06:17:50;29.03;;;10.83;;
6947;SDS011;3513;47.664;9.162;2023-06-22T06:20:20;16.33;;;10.30;;
6947;SDS011;3513;47.664;9.162;2023-06-22T06:22:47;31.67;;;10.63;;
6947;SDS011;3513;47.664;9.162;2023-06-22T06:25:13;16.27;;;10.10;;
6947;SDS011;3513;47.664;9.162;2023-06-22T06:27:48;29.83;;;11.17;;
6947;SDS011;3513;47.664;9.162;2023-06-22T06:30:16;26.70;;;10.50;;
6947;SDS011;3513;47.664;9.162;2023-06-22T06:32:43;38.13;;;10.30;;
6947;SDS011;3513;47.664;9.162;2023-06-22T06:35:11;22.90;;;10.10;;
6947;SDS011;3513;47.664;9.162;2023-06-22T06:37:38;29.87;;;10.33;;
6947;SDS011;3513;47.664;9.162;2023-06-22T06:40:09;21.87;;;11.60;;
6947;SDS011;3513;47.664;9.162;2023-06-22T06:42:36;26.10;;;9.67;;
6947;SDS011;3513;47.664;9.162;2023-06-22T06:47:40;22.17;;;10.90;;
6947;SDS011;3513;47.664;9.162;2023-06-22T06:50:05;22.73;;;10.70;;
6947;SDS011;3513;47.664;9.162;2023-06-22T06:52:31;15.70;;;9.03;;
6947;SDS011;3513;47.664;9.162;2023-06-22T06:54:57;16.83;;;9.37;;
6947;SDS011;3513;47.664;9.162;2023-06-22T06:57:23;26.00;;;11.07;;
6947;SDS011;3513;47.664;9.162;2023-06-22T06:59:54;31.50;;;9.47;;
6947;SDS011;3513;47.664;9.162;2023-06-22T07:02:21;17.57;;;9.30;;
6947;SDS011;3513;47.664;9.162;2023-06-22T07:04:47;20.17;;;9.73;;
6947;SDS011;3513;47.664;9.162;2023-06-22T07:07:13;18.70;;;10.00;;
6947;SDS011;3513;47.664;9.162;2023-06-22T07:09:39;24.73;;;9.60;;
6947;SDS011;3513;47.664;9.162;2023-06-22T07:12:05;21.20;;;10.43;;
6947;SDS011;3513;47.664;9.162;2023-06-22T07:14:31;23.73;;;10.17;;
6947;SDS011;3513;47.664;9.162;2023-06-22T07:16:57;20.63;;;10.13;;
6947;SDS011;3513;47.664;9.162;2023-06-22T07:19:26;25.67;;;10.43;;
6947;SDS011;3513;47.664;9.162;2023-06-22T07:21:53;24.10;;;11.87;;
6947;SDS011;3513;47.664;9.162;2023-06-22T07:24:19;21.13;;;10.53;;
6947;SDS011;3513;47.664;9.162;2023-06-22T07:26:46;21.53;;;11.20;;
6947;SDS011;3513;47.664;9.162;2023-06-22T07:29:13;25.20;;;10.60;;
6947;SDS011;3513;47.664;9.162;2023-06-22T07:31:39;26.27;;;12.87;;
6947;SDS011;3513;47.664;9.162;2023-06-22T07:34:06;22.70;;;11.73;;
6947;SDS011;3513;47.664;9.162;2023-06-22T07:36:31;19.60;;;10.77;;
6947;SDS011;3513;47.664;9.162;2023-06-22T07:38:57;22.97;;;10.53;;
6947;SDS011;3513;47.664;9.162;2023-06-22T07:41:22;22.63;;;12.57;;
6947;SDS011;3513;47.664;9.162;2023-06-22T07:43:48;17.63;;;10.00;;
6947;SDS011;3513;47.664;9.162;2023-06-22T07:46:14;25.33;;;10.77;;
6947;SDS011;3513;47.664;9.162;2023-06-22T07:48:40;22.60;;;11.40;;
6947;SDS011;3513;47.664;9.162;2023-06-22T07:51:07;23.53;;;11.20;;
6947;SDS011;3513;47.664;9.162;2023-06-22T07:53:32;19.10;;;10.00;;
6947;SDS011;3513;47.664;9.162;2023-06-22T07:55:58;21.77;;;11.67;;
6947;SDS011;3513;47.664;9.162;2023-06-22T07:58:23;21.30;;;12.27;;
6947;SDS011;3513;47.664;9.162;2023-06-22T08:00:49;18.73;;;11.80;;
6947;SDS011;3513;47.664;9.162;2023-06-22T08:03:15;33.57;;;12.20;;
6947;SDS011;3513;47.664;9.162;2023-06-22T08:05:41;32.10;;;11.30;;
6947;SDS011;3513;47.664;9.162;2023-06-22T08:08:06;27.80;;;10.73;;
6947;SDS011;3513;47.664;9.162;2023-06-22T08:10:32;19.93;;;11.07;;
6947;SDS011;3513;47.664;9.162;2023-06-22T08:12:58;19.10;;;10.43;;
6947;SDS011;3513;47.664;9.162;2023-06-22T08:15:23;26.20;;;10.23;;
6947;SDS011;3513;47.664;9.162;2023-06-22T08:17:50;23.47;;;10.70;;
6947;SDS011;3513;47.664;9.162;2023-06-22T08:20:17;25.43;;;11.00;;
6947;SDS011;3513;47.664;9.162;2023-06-22T08:22:43;24.40;;;9.93;;
6947;SDS011;3513;47.664;9.162;2023-06-22T08:25:09;32.03;;;11.50;;
6947;SDS011;3513;47.664;9.162;2023-06-22T08:27:35;23.17;;;11.37;;
6947;SDS011;3513;47.664;9.162;2023-06-22T08:30:01;23.73;;;10.03;;
6947;SDS011;3513;47.664;9.162;2023-06-22T08:32:27;21.63;;;10.27;;
6947;SDS011;3513;47.664;9.162;2023-06-22T08:34:54;18.23;;;11.33;;
6947;SDS011;3513;47.664;9.162;2023-06-22T08:37:20;21.00;;;11.47;;
6947;SDS011;3513;47.664;9.162;2023-06-22T08:39:48;27.03;;;12.00;;
6947;SDS011;3513;47.664;9.162;2023-06-22T08:42:15;20.30;;;10.50;;
6947;SDS011;3513;47.664;9.162;2023-06-22T08:44:41;23.63;;;11.37;;
6947;SDS011;3513;47.664;9.162;2023-06-22T08:47:06;22.43;;;9.87;;
6947;SDS011;3513;47.664;9.162;2023-06-22T08:49:32;28.17;;;11.10;;
6947;SDS011;3513;47.664;9.162;2023-06-22T08:51:57;19.00;;;11.03;;
6947;SDS011;3513;47.664;9.162;2023-06-22T08:54:23;29.90;;;12.30;;
6947;SDS011;3513;47.664;9.162;2023-06-22T08:56:49;24.17;;;11.93;;
6947;SDS011;3513;47.664;9.162;2023-06-22T08:59:14;28.53;;;13.03;;
6947;SDS011;3513;47.664;9.162;2023-06-22T09:01:40;25.80;;;13.93;;
6947;SDS011;3513;47.664;9.162;2023-06-22T09:04:05;27.13;;;12.87;;
6947;SDS011;3513;47.664;9.162;2023-06-22T09:06:34;22.57;;;13.33;;
6947;SDS011;3513;47.664;9.162;2023-06-22T09:08:59;28.73;;;12.83;;
6947;SDS011;3513;47.664;9.162;2023-06-22T09:11:25;21.83;;;12.90;;
6947;SDS011;3513;47.664;9.162;2023-06-22T09:13:51;30.10;;;13.63;;
6947;SDS011;3513;47.664;9.162;2023-06-22T09:16:18;31.67;;;12.10;;
6947;SDS011;3513;47.664;9.162;2023-06-22T09:18:47;20.90;;;11.63;;
6947;SDS011;3513;47.664;9.162;2023-06-22T09:21:13;21.07;;;10.73;;
6947;SDS011;3513;47.664;9.162;2023-06-22T09:23:39;25.83;;;11.23;;
6947;SDS011;3513;47.664;9.162;2023-06-22T09:26:05;22.43;;;12.07;;
6947;SDS011;3513;47.664;9.162;2023-06-22T09:28:30;67.43;;;11.17;;
6947;SDS011;3513;47.664;9.162;2023-06-22T09:30:56;29.87;;;11.10;;
6947;SDS011;3513;47.664;9.162;2023-06-22T09:33:23;24.80;;;13.10;;
6947;SDS011;3513;47.664;9.162;2023-06-22T09:35:49;23.20;;;13.17;;
6947;SDS011;3513;47.664;9.162;2023-06-22T09:38:16;22.70;;;12.80;;
6947;SDS011;3513;47.664;9.162;2023-06-22T09:40:41;26.90;;;11.50;;
6947;SDS011;3513;47.664;9.162;2023-06-22T09:43:07;25.17;;;10.40;;
6947;SDS011;3513;47.664;9.162;2023-06-22T09:45:33;25.70;;;12.67;;
6947;SDS011;3513;47.664;9.162;2023-06-22T09:47:59;27.80;;;12.67;;
6947;SDS011;3513;47.664;9.162;2023-06-22T09:50:24;27.53;;;11.47;;
6947;SDS011;3513;47.664;9.162;2023-06-22T09:52:50;23.67;;;12.63;;
6947;SDS011;3513;47.664;9.162;2023-06-22T09:55:19;26.07;;;13.60;;
6947;SDS011;3513;47.664;9.162;2023-06-22T09:57:46;28.47;;;10.77;;
6947;SDS011;3513;47.664;9.162;2023-06-22T10:00:11;17.13;;;10.33;;
6947;SDS011;3513;47.664;9.162;2023-06-22T10:02:39;29.13;;;10.03;;
6947;SDS011;3513;47.664;9.162;2023-06-22T10:05:05;31.37;;;12.17;;
6947;SDS011;3513;47.664;9.162;2023-06-22T10:07:30;41.00;;;10.60;;
6947;SDS011;3513;47.664;9.162;2023-06-22T10:09:56;19.80;;;10.77;;
6947;SDS011;3513;47.664;9.162;2023-06-22T10:12:21;35.53;;;11.83;;
6947;SDS011;3513;47.664;9.162;2023-06-22T10:14:47;20.47;;;10.60;;
6947;SDS011;3513;47.664;9.162;2023-06-22T10:17:13;23.10;;;10.23;;
6947;SDS011;3513;47.664;9.162;2023-06-22T10:19:38;23.13;;;11.90;;
6947;SDS011;3513;47.664;9.162;2023-06-22T10:22:06;17.80;;;8.80;;
6947;SDS011;3513;47.664;9.162;2023-06-22T10:24:31;14.63;;;8.20;;
6947;SDS011;3513;47.664;9.162;2023-06-22T10:26:57;16.70;;;9.80;;
6947;SDS011;3513;47.664;9.162;2023-06-22T10:29:23;24.17;;;10.30;;
6947;SDS011;3513;47.664;9.162;2023-06-22T10:31:48;21.20;;;10.43;;
6947;SDS011;3513;47.664;9.162;2023-06-22T10:34:14;32.63;;;12.60;;
6947;SDS011;3513;47.664;9.162;2023-06-22T10:36:40;28.20;;;13.87;;
6947;SDS011;3513;47.664;9.162;2023-06-22T10:39:05;19.93;;;11.03;;
6947;SDS011;3513;47.664;9.162;2023-06-22T10:41:31;26.50;;;11.20;;
6947;SDS011;3513;47.664;9.162;2023-06-22T10:43:57;21.47;;;9.80;;
6947;SDS011;3513;47.664;9.162;2023-06-22T10:46:26;27.10;;;11.43;;
6947;SDS011;3513;47.664;9.162;2023-06-22T10:48:52;22.23;;;8.90;;
6947;SDS011;3513;47.664;9.162;2023-06-22T10:51:20;21.47;;;10.20;;
6947;SDS011;3513;47.664;9.162;2023-06-22T10:53:46;32.33;;;8.83;;
6947;SDS011;3513;47.664;9.162;2023-06-22T10:56:11;19.30;;;9.90;;
6947;SDS011;3513;47.664;9.162;2023-06-22T10:58:37;17.53;;;9.13;;
6947;SDS011;3513;47.664;9.162;2023-06-22T11:01:02;20.53;;;12.07;;
6947;SDS011;3513;47.664;9.162;2023-06-22T11:03:28;16.03;;;10.20;;
6947;SDS011;3513;47.664;9.162;2023-06-22T11:05:57;23.03;;;9.90;;
6947;SDS011;3513;47.664;9.162;2023-06-22T11:08:22;24.87;;;10.10;;
6947;SDS011;3513;47.664;9.162;2023-06-22T11:10:48;27.47;;;12.30;;
6947;SDS011;3513;47.664;9.162;2023-06-22T11:13:16;27.20;;;11.60;;
6947;SDS011;3513;47.664;9.162;2023-06-22T11:15:41;21.13;;;12.00;;
6947;SDS011;3513;47.664;9.162;2023-06-22T11:18:07;25.87;;;11.50;;
6947;SDS011;3513;47.664;9.162;2023-06-22T11:20:33;37.53;;;12.80;;
6947;SDS011;3513;47.664;9.162;2023-06-22T11:23:03;28.30;;;13.13;;
6947;SDS011;3513;47.664;9.162;2023-06-22T11:25:31;25.47;;;12.20;;
6947;SDS011;3513;47.664;9.162;2023-06-22T11:27:57;32.13;;;12.90;;
6947;SDS011;3513;47.664;9.162;2023-06-22T11:30:22;30.27;;;13.23;;
6947;SDS011;3513;47.664;9.162;2023-06-22T11:32:48;21.57;;;11.43;;
6947;SDS011;3513;47.664;9.162;2023-06-22T11:35:14;21.50;;;11.10;;
6947;SDS011;3513;47.664;9.162;2023-06-22T11:37:39;27.87;;;13.43;;
6947;SDS011;3513;47.664;9.162;2023-06-22T11:40:08;33.60;;;13.63;;
6947;SDS011;3513;47.664;9.162;2023-06-22T11:42:37;34.03;;;12.37;;
6947;SDS011;3513;47.664;9.162;2023-06-22T11:45:04;30.37;;;13.20;;
6947;SDS011;3513;47.664;9.162;2023-06-22T11:47:31;21.73;;;12.90;;
6947;SDS011;3513;47.664;9.162;2023-06-22T11:49:57;30.50;;;13.10;;
6947;SDS011;3513;47.664;9.162;2023-06-22T11:52:23;24.50;;;12.13;;
6947;SDS011;3513;47.664;9.162;2023-06-22T11:54:49;25.27;;;11.83;;
6947;SDS011;3513;47.664;9.162;2023-06-22T11:57:24;26.13;;;11.43;;
6947;SDS011;3513;47.664;9.162;2023-06-22T11:59:50;23.33;;;11.10;;
6947;SDS011;3513;47.664;9.162;2023-06-22T12:02:16;21.33;;;11.40;;
6947;SDS011;3513;47.664;9.162;2023-06-22T12:04:41;43.70;;;11.50;;
6947;SDS011;3513;47.664;9.162;2023-06-22T12:07:07;24.97;;;11.50;;
6947;SDS011;3513;47.664;9.162;2023-06-22T12:09:33;31.77;;;13.60;;
6947;SDS011;3513;47.664;9.162;2023-06-22T12:11:59;24.13;;;13.67;;
6947;SDS011;3513;47.664;9.162;2023-06-22T12:14:24;24.90;;;11.90;;
6947;SDS011;3513;47.664;9.162;2023-06-22T12:16:50;24.83;;;12.60;;
6947;SDS011;3513;47.664;9.162;2023-06-22T12:19:16;32.13;;;13.40;;
6947;SDS011;3513;47.664;9.162;2023-06-22T12:21:42;22.00;;;11.70;;
6947;SDS011;3513;47.664;9.162;2023-06-22T12:24:10;36.87;;;13.90;;
6947;SDS011;3513;47.664;9.162;2023-06-22T12:26:36;24.30;;;13.60;;
6947;SDS011;3513;47.664;9.162;2023-06-22T12:29:01;40.70;;;12.67;;
6947;SDS011;3513;47.664;9.162;2023-06-22T12:31:27;23.77;;;11.33;;
6947;SDS011;3513;47.664;9.162;2023-06-22T12:33:53;31.30;;;11.73;;
6947;SDS011;3513;47.664;9.162;2023-06-22T12:36:19;20.20;;;10.93;;
6947;SDS011;3513;47.664;9.162;2023-06-22T12:38:45;29.37;;;12.30;;
6947;SDS011;3513;47.664;9.162;2023-06-22T12:41:11;25.80;;;11.33;;
6947;SDS011;3513;47.664;9.162;2023-06-22T12:43:36;28.83;;;11.67;;
6947;SDS011;3513;47.664;9.162;2023-06-22T12:46:05;29.13;;;11.77;;
6947;SDS011;3513;47.664;9.162;2023-06-22T12:48:31;27.43;;;11.13;;
6947;SDS011;3513;47.664;9.162;2023-06-22T12:50:56;24.90;;;10.93;;
6947;SDS011;3513;47.664;9.162;2023-06-22T12:53:22;31.77;;;11.70;;
6947;SDS011;3513;47.664;9.162;2023-06-22T12:55:48;22.03;;;9.67;;
6947;SDS011;3513;47.664;9.162;2023-06-22T12:58:14;25.13;;;10.67;;
6947;SDS011;3513;47.664;9.162;2023-06-22T13:00:40;20.33;;;9.80;;
6947;SDS011;3513;47.664;9.162;2023-06-22T13:03:06;34.63;;;10.37;;
6947;SDS011;3513;47.664;9.162;2023-06-22T13:05:31;17.80;;;10.30;;
6947;SDS011;3513;47.664;9.162;2023-06-22T13:07:59;33.90;;;10.90;;
6947;SDS011;3513;47.664;9.162;2023-06-22T13:10:25;20.30;;;8.60;;
6947;SDS011;3513;47.664;9.162;2023-06-22T13:12:51;21.77;;;10.53;;
6947;SDS011;3513;47.664;9.162;2023-06-22T13:15:19;33.00;;;11.00;;
6947;SDS011;3513;47.664;9.162;2023-06-22T13:17:45;24.33;;;10.60;;
6947;SDS011;3513;47.664;9.162;2023-06-22T13:20:17;18.07;;;9.33;;
6947;SDS011;3513;47.664;9.162;2023-06-22T13:22:45;32.40;;;10.60;;
6947;SDS011;3513;47.664;9.162;2023-06-22T13:25:11;33.40;;;11.50;;
6947;SDS011;3513;47.664;9.162;2023-06-22T13:27:38;24.83;;;10.00;;
6947;SDS011;3513;47.664;9.162;2023-06-22T13:30:07;46.90;;;13.17;;
6947;SDS011;3513;47.664;9.162;2023-06-22T13:32:33;25.90;;;11.00;;
6947;SDS011;3513;47.664;9.162;2023-06-22T13:34:59;18.63;;;9.80;;
6947;SDS011;3513;47.664;9.162;2023-06-22T13:37:25;22.77;;;10.10;;
6947;SDS011;3513;47.664;9.162;2023-06-22T13:39:58;23.40;;;10.80;;
6947;SDS011;3513;47.664;9.162;2023-06-22T13:42:24;23.50;;;11.53;;
6947;SDS011;3513;47.664;9.162;2023-06-22T13:44:57;32.30;;;10.40;;
6947;SDS011;3513;47.664;9.162;2023-06-22T13:47:26;32.90;;;10.10;;
6947;SDS011;3513;47.664;9.162;2023-06-22T13:49:52;31.00;;;11.80;;
6947;SDS011;3513;47.664;9.162;2023-06-22T13:52:17;23.00;;;11.60;;
6947;SDS011;3513;47.664;9.162;2023-06-22T13:54:43;26.47;;;11.13;;
6947;SDS011;3513;47.664;9.162;2023-06-22T13:57:17;28.37;;;10.87;;
6947;SDS011;3513;47.664;9.162;2023-06-22T13:59:43;27.00;;;9.90;;
6947;SDS011;3513;47.664;9.162;2023-06-22T14:02:08;28.23;;;10.40;;
6947;SDS011;3513;47.664;9.162;2023-06-22T14:04:37;25.60;;;9.63;;
6947;SDS011;3513;47.664;9.162;2023-06-22T14:07:03;27.33;;;10.03;;
6947;SDS011;3513;47.664;9.162;2023-06-22T14:09:29;21.27;;;8.20;;
6947;SDS011;3513;47.664;9.162;2023-06-22T14:11:55;24.70;;;8.53;;
6947;SDS011;3513;47.664;9.162;2023-06-22T14:14:24;18.67;;;6.80;;
6947;SDS011;3513;47.664;9.162;2023-06-22T14:16:49;20.20;;;7.20;;
6947;SDS011;3513;47.664;9.162;2023-06-22T14:19:18;17.17;;;6.10;;
6947;SDS011;3513;47.664;9.162;2023-06-22T14:21:44;24.90;;;6.30;;
6947;SDS011;3513;47.664;9.162;2023-06-22T14:24:10;19.13;;;6.03;;
6947;SDS011;3513;47.664;9.162;2023-06-22T14:26:35;16.20;;;6.40;;
6947;SDS011;3513;47.664;9.162;2023-06-22T14:29:01;20.80;;;6.00;;
6947;SDS011;3513;47.664;9.162;2023-06-22T14:31:29;20.70;;;6.30;;
6947;SDS011;3513;47.664;9.162;2023-06-22T14:33:55;22.87;;;6.00;;
6947;SDS011;3513;47.664;9.162;2023-06-22T14:36:21;23.97;;;7.17;;
6947;SDS011;3513;47.664;9.162;2023-06-22T14:38:46;20.27;;;5.77;;
6947;SDS011;3513;47.664;9.162;2023-06-22T14:41:12;17.80;;;6.57;;
6947;SDS011;3513;47.664;9.162;2023-06-22T14:43:43;25.73;;;6.40;;
6947;SDS011;3513;47.664;9.162;2023-06-22T14:46:10;14.00;;;5.90;;
6947;SDS011;3513;47.664;9.162;2023-06-22T14:48:36;23.43;;;5.60;;
6947;SDS011;3513;47.664;9.162;2023-06-22T14:51:02;25.43;;;6.10;;
6947;SDS011;3513;47.664;9.162;2023-06-22T14:53:27;32.63;;;6.30;;
6947;SDS011;3513;47.664;9.162;2023-06-22T14:55:53;22.03;;;6.07;;